createdAt,value
2022-11-19T15:11:57.434Z,1.80
2022-11-19T15:14:30.188Z,1.95
2022-11-19T15:17:01.038Z,1.88
2022-11-19T15:20:00.346Z,2.11
2022-11-19T15:22:49.695Z,1.98
2022-11-19T15:25:54.742Z,2.28
2022-11-19T15:28:36.401Z,2.36
2022-11-19T15:31:15.126Z,2.46
2022-11-19T15:34:00.260Z,2.21
2022-11-19T15:36:36.558Z,2.43
2022-11-19T15:39:16.222Z,2.45
2022-11-19T15:42:00.359Z,2.52
2022-11-19T15:44:48.873Z,2.46
2022-11-19T15:47:24.082Z,2.47
2022-11-19T15:49:52.989Z,2.55
2022-11-19T15:52:21.778Z,2.53
2022-11-19T15:54:48.275Z,2.66
2022-11-19T15:57:22.887Z,2.63
2022-11-19T16:00:01.258Z,2.67
2022-11-19T16:02:36.464Z,2.55
2022-11-19T16:05:04.679Z,2.89
2022-11-19T16:07:31.669Z,2.85
2022-11-19T16:09:59.302Z,2.79
2022-11-19T16:12:46.088Z,2.73
2022-11-19T16:15:43.106Z,2.69
2022-11-19T16:18:17.575Z,2.80
2022-11-19T16:20:47.356Z,2.82
2022-11-19T16:23:19.334Z,2.53
2022-11-19T16:25:46.459Z,2.73
2022-11-19T16:28:19.524Z,2.88
2022-11-19T16:30:50.372Z,3.01
2022-11-19T16:33:20.207Z,2.80
2022-11-19T16:35:52.356Z,3.01
2022-11-19T16:38:27.272Z,3.00
2022-11-19T16:41:14.236Z,3.02
2022-11-19T16:43:44.839Z,3.03
2022-11-19T16:46:19.257Z,3.06
2022-11-19T16:48:54.862Z,3.02
2022-11-19T16:51:44.405Z,3.00
2022-11-19T16:54:11.124Z,3.06
2022-11-19T16:56:42.237Z,3.04
2022-11-19T16:59:17.678Z,3.18
2022-11-19T17:01:51.779Z,-145.37
2022-11-19T17:04:19.082Z,-145.37
2022-11-19T17:06:46.200Z,-145.37
2022-11-19T17:09:30.933Z,-145.37
2022-11-19T17:12:16.048Z,-145.37
2022-11-19T17:14:47.052Z,-145.37
2022-11-19T17:17:40.381Z,-145.37
2022-11-19T17:20:32.859Z,-145.37
2022-11-19T17:23:02.299Z,-145.37
2022-11-19T17:25:28.755Z,-145.37
2022-11-19T17:27:57.585Z,-145.37
2022-11-19T17:30:33.325Z,-145.37
2022-11-19T17:33:02.327Z,-145.37
2022-11-19T17:35:43.161Z,-145.37
2022-11-19T17:38:24.898Z,-145.37
2022-11-19T17:40:57.318Z,-145.37
2022-11-19T17:43:43.791Z,-145.37
2022-11-19T17:46:10.507Z,-145.37
2022-11-19T17:48:40.365Z,-145.37
2022-11-19T17:51:09.601Z,-145.37
2022-11-19T17:53:36.043Z,-145.37
2022-11-19T17:56:04.437Z,-145.37
2022-11-19T17:58:31.016Z,-145.37
2022-11-19T18:00:57.480Z,-145.37
2022-11-19T18:03:23.969Z,-145.37
2022-11-19T18:05:50.810Z,-145.37
2022-11-19T18:08:17.341Z,-145.37
2022-11-19T18:10:46.297Z,-145.37
2022-11-19T18:13:16.528Z,-145.37
2022-11-19T18:15:42.938Z,-145.37
2022-11-19T18:18:09.456Z,-145.37
2022-11-19T18:20:35.934Z,-145.37
2022-11-19T18:23:02.429Z,-145.37
2022-11-19T18:25:28.919Z,-145.37
2022-11-19T18:27:55.318Z,-145.37
2022-11-19T18:30:21.908Z,-145.37
2022-11-19T18:32:48.506Z,-145.37
2022-11-19T18:35:19.671Z,-145.37
2022-11-19T18:37:46.471Z,-145.37
2022-11-19T18:40:14.513Z,-145.37
2022-11-19T18:43:04.289Z,-145.37
2022-11-19T18:45:31.670Z,-145.37
2022-11-19T18:47:58.137Z,-145.37
2022-11-19T18:50:29.519Z,-145.37
2022-11-19T18:52:56.631Z,-145.37
2022-11-19T18:55:23.139Z,-145.37
2022-11-19T18:57:49.530Z,-145.37
2022-11-19T19:00:16.027Z,-145.37
2022-11-19T19:02:42.455Z,-145.37
2022-11-19T19:05:09.208Z,-145.37
2022-11-19T19:07:35.921Z,-145.37
2022-11-19T19:10:03.641Z,-145.37
2022-11-19T19:12:30.146Z,-145.37
2022-11-19T19:14:57.425Z,-145.37
2022-11-19T19:17:23.848Z,-145.37
2022-11-19T19:19:50.362Z,-145.37
2022-11-19T19:22:17.117Z,-145.37
2022-11-19T19:24:43.707Z,-145.37
2022-11-19T19:27:11.055Z,-145.37
2022-11-19T19:29:37.656Z,-145.37
2022-11-19T19:32:04.284Z,-145.37
2022-11-19T19:34:30.803Z,-145.37
2022-11-19T19:36:57.338Z,-145.37
2022-11-19T19:39:24.057Z,-145.37
2022-11-19T19:41:50.885Z,-145.37
2022-11-19T19:44:17.305Z,-145.37
2022-11-19T19:46:43.812Z,-145.37
2022-11-19T19:49:10.345Z,-145.37
2022-11-19T19:51:36.757Z,-145.37
2022-11-19T19:54:03.313Z,-145.37
2022-11-19T19:56:32.364Z,-145.37
2022-11-19T19:59:01.350Z,-145.37
2022-11-19T20:01:33.220Z,-145.37
2022-11-19T20:04:01.723Z,-145.37
2022-11-19T20:06:28.735Z,-145.37
2022-11-19T20:08:55.155Z,-145.37
2022-11-19T20:11:26.668Z,-145.37
2022-11-19T20:13:54.864Z,-145.37
2022-11-19T20:16:24.363Z,-145.37
2022-11-19T20:18:52.125Z,-145.37
2022-11-19T20:21:22.440Z,-145.37
2022-11-19T20:23:48.931Z,-145.37
2022-11-19T20:26:23.869Z,-145.37
2022-11-19T20:28:56.141Z,-145.37
2022-11-19T20:31:23.307Z,-145.37
2022-11-19T20:33:57.789Z,-145.37
2022-11-19T20:36:26.621Z,-145.37
2022-11-19T20:38:53.780Z,-145.37
2022-11-19T20:41:40.339Z,-145.37
2022-11-19T20:44:22.373Z,-145.37
2022-11-19T20:46:54.790Z,-145.37
2022-11-19T20:49:26.896Z,-145.37
2022-11-19T20:51:53.823Z,-145.37
2022-11-19T20:54:21.640Z,-145.37
2022-11-19T20:56:49.474Z,-145.37
2022-11-19T20:59:16.012Z,-145.37
2022-11-19T21:01:42.504Z,-145.37
2022-11-19T21:04:10.829Z,-145.37
2022-11-19T21:06:37.545Z,-145.37
2022-11-19T21:09:04.459Z,-145.37
2022-11-19T21:11:31.292Z,-145.37
2022-11-19T21:13:57.779Z,-145.37
